Pagrindinis puslapis
METAR-TAF:

METAR-TAF

Oro uostai :

Tel Avivas-Ben Gurion, Izraelis

platuma: 32-00N, ilguma: 034-54E, Aukštis: 40 m

Dabartinis oras

Ataskaita buvo paskelbta 13 minutes, ne 21:20 UTC
Vėjas 2 kt nuo kintamojo kryptimis
Temperatūra 20°C
Drėgmė 56%
Slėgis 1017 hPa
Matomumas 10 km arba daugiau
Mažai debesys ne aukštis 3500 ft

METAR: LLBG 302120Z VRB02KT 9999 FEW035 20/11 Q1017 NOSIG

Laikas: 00:33 (21:33 UTC)

Prognozė

Ataskaita buvo paskelbta 4 valandos ir 30 minutes, ne 17:03 UTC
Prognozė galioja nuo 30 metu 18 UTC su 31 metu 18 UTC
Vėjas 8 kt iš Šiaurės
Matomumas 10 km arba daugiau
Mažai debesys ne aukštis 3000 ft
Tapsmas
nuo 30 metu 20 UTC su 30 metu 22 UTC
Vėjas 4 kt iš Rytų/Pietryčių
Išsisklaidę debesys ne aukštis 2500 ft
Tapsmas
nuo 31 metu 07 UTC su 31 metu 09 UTC
Vėjas 13 kt iš Šiaurės Vakarų
Mažai debesys ne aukštis 3000 ft

TAF: LLBG 301703Z 3018/3118 36008KT 9999 FEW030 BECMG 3020/3022 12004KT SCT025 BECMG 3107/3109 32013KT FEW030 TX26/3112Z TN17/3103Z

Orai ataskaitas ir orų prognozės (METAR, TAF).

turimą stotys yra geltonos ir raudonos taškus žemėlapyje.

Perkelti pele per norėdami pamatyti stoties vardą.

Tada spustelėkite, norėdami matyti oro stebėjimo ir prognozės.

Norėdami pakeisti žemėlapį: spustelėkite ant žalios mygtukų su juodo kryžiaus žemyn,; žalią mygtuką su brūkšneliu, jei norite nutolinti; arba žalių rodyklių gretimoms žemėlapius.


METAR-TAF: